sensor_id;sensor_type;location;lat;lon;timestamp;P1;durP1;ratioP1;P2;durP2;ratioP2
15603;SDS011;7902;49.042;9.092;2023-09-30T00:01:09;16.07;;;1.87;;
15603;SDS011;7902;49.042;9.092;2023-09-30T00:03:36;18.00;;;1.97;;
15603;SDS011;7902;49.042;9.092;2023-09-30T00:06:02;20.40;;;2.97;;
15603;SDS011;7902;49.042;9.092;2023-09-30T00:08:29;19.40;;;2.00;;
15603;SDS011;7902;49.042;9.092;2023-09-30T00:10:55;15.20;;;1.60;;
15603;SDS011;7902;49.042;9.092;2023-09-30T00:13:21;15.97;;;1.70;;
15603;SDS011;7902;49.042;9.092;2023-09-30T00:15:47;17.17;;;2.03;;
15603;SDS011;7902;49.042;9.092;2023-09-30T00:18:13;18.17;;;1.83;;
15603;SDS011;7902;49.042;9.092;2023-09-30T00:20:39;17.33;;;2.10;;
15603;SDS011;7902;49.042;9.092;2023-09-30T00:23:05;16.30;;;2.40;;
15603;SDS011;7902;49.042;9.092;2023-09-30T00:25:34;18.40;;;2.30;;
15603;SDS011;7902;49.042;9.092;2023-09-30T00:28:00;14.87;;;1.90;;
15603;SDS011;7902;49.042;9.092;2023-09-30T00:30:26;18.30;;;1.67;;
15603;SDS011;7902;49.042;9.092;2023-09-30T00:32:52;17.07;;;2.40;;
15603;SDS011;7902;49.042;9.092;2023-09-30T00:35:18;16.97;;;2.10;;
15603;SDS011;7902;49.042;9.092;2023-09-30T00:37:44;28.20;;;2.07;;
15603;SDS011;7902;49.042;9.092;2023-09-30T00:40:11;16.30;;;2.00;;
15603;SDS011;7902;49.042;9.092;2023-09-30T00:42:40;17.37;;;1.93;;
15603;SDS011;7902;49.042;9.092;2023-09-30T00:45:07;16.10;;;2.03;;
15603;SDS011;7902;49.042;9.092;2023-09-30T00:47:36;16.93;;;2.20;;
15603;SDS011;7902;49.042;9.092;2023-09-30T00:50:03;18.13;;;2.60;;
15603;SDS011;7902;49.042;9.092;2023-09-30T00:52:33;18.23;;;2.30;;
15603;SDS011;7902;49.042;9.092;2023-09-30T00:55:00;17.40;;;2.27;;
15603;SDS011;7902;49.042;9.092;2023-09-30T00:57:28;17.57;;;2.37;;
15603;SDS011;7902;49.042;9.092;2023-09-30T00:59:55;16.63;;;1.80;;
15603;SDS011;7902;49.042;9.092;2023-09-30T01:02:22;15.63;;;2.20;;
15603;SDS011;7902;49.042;9.092;2023-09-30T01:04:48;14.80;;;1.77;;
15603;SDS011;7902;49.042;9.092;2023-09-30T01:07:15;21.37;;;2.60;;
15603;SDS011;7902;49.042;9.092;2023-09-30T01:09:41;16.87;;;1.80;;
15603;SDS011;7902;49.042;9.092;2023-09-30T01:12:07;16.70;;;2.17;;
15603;SDS011;7902;49.042;9.092;2023-09-30T01:14:34;19.60;;;2.50;;
15603;SDS011;7902;49.042;9.092;2023-09-30T01:17:01;19.97;;;2.43;;
15603;SDS011;7902;49.042;9.092;2023-09-30T01:19:27;18.60;;;2.67;;
15603;SDS011;7902;49.042;9.092;2023-09-30T01:21:57;29.00;;;3.27;;
15603;SDS011;7902;49.042;9.092;2023-09-30T01:24:28;22.37;;;2.80;;
15603;SDS011;7902;49.042;9.092;2023-09-30T01:26:55;16.87;;;2.03;;
15603;SDS011;7902;49.042;9.092;2023-09-30T01:29:21;17.23;;;2.30;;
15603;SDS011;7902;49.042;9.092;2023-09-30T01:31:48;24.53;;;2.83;;
15603;SDS011;7902;49.042;9.092;2023-09-30T01:34:15;17.70;;;3.03;;
15603;SDS011;7902;49.042;9.092;2023-09-30T01:36:42;19.43;;;2.57;;
15603;SDS011;7902;49.042;9.092;2023-09-30T01:39:09;18.80;;;3.20;;
15603;SDS011;7902;49.042;9.092;2023-09-30T01:41:36;18.17;;;2.60;;
15603;SDS011;7902;49.042;9.092;2023-09-30T01:44:03;21.60;;;3.40;;
15603;SDS011;7902;49.042;9.092;2023-09-30T01:46:29;23.50;;;3.60;;
15603;SDS011;7902;49.042;9.092;2023-09-30T01:48:55;18.63;;;2.50;;
15603;SDS011;7902;49.042;9.092;2023-09-30T01:51:21;17.50;;;3.57;;
15603;SDS011;7902;49.042;9.092;2023-09-30T01:53:47;22.10;;;2.60;;
15603;SDS011;7902;49.042;9.092;2023-09-30T01:56:13;22.40;;;3.37;;
15603;SDS011;7902;49.042;9.092;2023-09-30T01:58:39;26.00;;;3.77;;
15603;SDS011;7902;49.042;9.092;2023-09-30T02:01:05;22.00;;;3.47;;
15603;SDS011;7902;49.042;9.092;2023-09-30T02:03:32;19.80;;;3.63;;
15603;SDS011;7902;49.042;9.092;2023-09-30T02:05:58;21.87;;;3.30;;
15603;SDS011;7902;49.042;9.092;2023-09-30T02:08:24;21.13;;;3.33;;
15603;SDS011;7902;49.042;9.092;2023-09-30T02:10:50;18.30;;;2.97;;
15603;SDS011;7902;49.042;9.092;2023-09-30T02:13:19;19.07;;;3.50;;
15603;SDS011;7902;49.042;9.092;2023-09-30T02:15:45;22.50;;;3.13;;
15603;SDS011;7902;49.042;9.092;2023-09-30T02:18:11;20.17;;;4.20;;
15603;SDS011;7902;49.042;9.092;2023-09-30T02:20:37;20.83;;;3.00;;
15603;SDS011;7902;49.042;9.092;2023-09-30T02:23:07;27.47;;;3.43;;
15603;SDS011;7902;49.042;9.092;2023-09-30T02:25:41;24.77;;;3.70;;
15603;SDS011;7902;49.042;9.092;2023-09-30T02:28:08;22.80;;;3.30;;
15603;SDS011;7902;49.042;9.092;2023-09-30T02:30:35;21.33;;;3.60;;
15603;SDS011;7902;49.042;9.092;2023-09-30T02:33:01;17.70;;;2.77;;
15603;SDS011;7902;49.042;9.092;2023-09-30T02:35:28;22.10;;;3.57;;
15603;SDS011;7902;49.042;9.092;2023-09-30T02:37:54;20.87;;;4.13;;
15603;SDS011;7902;49.042;9.092;2023-09-30T02:40:20;21.00;;;3.47;;
15603;SDS011;7902;49.042;9.092;2023-09-30T02:42:50;22.30;;;3.77;;
15603;SDS011;7902;49.042;9.092;2023-09-30T02:45:17;26.17;;;3.50;;
15603;SDS011;7902;49.042;9.092;2023-09-30T02:47:43;22.70;;;3.93;;
15603;SDS011;7902;49.042;9.092;2023-09-30T02:50:09;23.63;;;3.00;;
15603;SDS011;7902;49.042;9.092;2023-09-30T02:52:39;21.80;;;3.47;;
15603;SDS011;7902;49.042;9.092;2023-09-30T02:55:09;22.50;;;3.83;;
15603;SDS011;7902;49.042;9.092;2023-09-30T02:57:36;20.40;;;3.30;;
15603;SDS011;7902;49.042;9.092;2023-09-30T03:00:02;18.97;;;3.20;;
15603;SDS011;7902;49.042;9.092;2023-09-30T03:02:48;20.10;;;3.40;;
15603;SDS011;7902;49.042;9.092;2023-09-30T03:05:15;21.20;;;3.17;;
15603;SDS011;7902;49.042;9.092;2023-09-30T03:07:41;18.00;;;3.00;;
15603;SDS011;7902;49.042;9.092;2023-09-30T03:10:07;22.57;;;3.63;;
15603;SDS011;7902;49.042;9.092;2023-09-30T03:12:34;20.33;;;3.23;;
15603;SDS011;7902;49.042;9.092;2023-09-30T03:15:00;23.80;;;3.23;;
15603;SDS011;7902;49.042;9.092;2023-09-30T03:17:29;23.37;;;3.40;;
15603;SDS011;7902;49.042;9.092;2023-09-30T03:19:58;20.17;;;3.20;;
15603;SDS011;7902;49.042;9.092;2023-09-30T03:22:26;17.07;;;3.00;;
15603;SDS011;7902;49.042;9.092;2023-09-30T03:24:53;18.20;;;2.87;;
15603;SDS011;7902;49.042;9.092;2023-09-30T03:27:20;18.90;;;3.10;;
15603;SDS011;7902;49.042;9.092;2023-09-30T03:29:46;19.83;;;2.67;;
15603;SDS011;7902;49.042;9.092;2023-09-30T03:32:12;18.30;;;2.70;;
15603;SDS011;7902;49.042;9.092;2023-09-30T03:34:37;17.87;;;2.90;;
15603;SDS011;7902;49.042;9.092;2023-09-30T03:37:03;25.07;;;3.00;;
15603;SDS011;7902;49.042;9.092;2023-09-30T03:39:32;19.40;;;2.97;;
15603;SDS011;7902;49.042;9.092;2023-09-30T03:41:58;19.53;;;3.40;;
15603;SDS011;7902;49.042;9.092;2023-09-30T03:44:24;19.70;;;3.37;;
15603;SDS011;7902;49.042;9.092;2023-09-30T03:46:51;20.47;;;3.50;;
15603;SDS011;7902;49.042;9.092;2023-09-30T03:49:18;21.03;;;3.00;;
15603;SDS011;7902;49.042;9.092;2023-09-30T03:51:45;15.83;;;2.43;;
15603;SDS011;7902;49.042;9.092;2023-09-30T03:54:12;23.97;;;3.33;;
15603;SDS011;7902;49.042;9.092;2023-09-30T03:56:38;17.77;;;3.00;;
15603;SDS011;7902;49.042;9.092;2023-09-30T03:59:04;17.90;;;2.80;;
15603;SDS011;7902;49.042;9.092;2023-09-30T04:01:30;20.73;;;3.53;;
15603;SDS011;7902;49.042;9.092;2023-09-30T04:03:56;23.33;;;3.40;;
15603;SDS011;7902;49.042;9.092;2023-09-30T04:06:22;21.60;;;3.70;;
15603;SDS011;7902;49.042;9.092;2023-09-30T04:08:49;21.80;;;3.47;;
15603;SDS011;7902;49.042;9.092;2023-09-30T04:11:16;23.33;;;3.57;;
15603;SDS011;7902;49.042;9.092;2023-09-30T04:13:46;20.00;;;3.60;;
15603;SDS011;7902;49.042;9.092;2023-09-30T04:16:12;22.90;;;3.90;;
15603;SDS011;7902;49.042;9.092;2023-09-30T04:18:38;23.17;;;3.03;;
15603;SDS011;7902;49.042;9.092;2023-09-30T04:21:06;18.50;;;2.70;;
15603;SDS011;7902;49.042;9.092;2023-09-30T04:23:33;18.70;;;3.43;;
15603;SDS011;7902;49.042;9.092;2023-09-30T04:26:02;19.83;;;3.10;;
15603;SDS011;7902;49.042;9.092;2023-09-30T04:28:28;23.43;;;3.07;;
15603;SDS011;7902;49.042;9.092;2023-09-30T04:30:54;16.83;;;2.90;;
15603;SDS011;7902;49.042;9.092;2023-09-30T04:33:20;24.93;;;3.30;;
15603;SDS011;7902;49.042;9.092;2023-09-30T04:35:49;18.77;;;3.10;;
15603;SDS011;7902;49.042;9.092;2023-09-30T04:38:15;17.33;;;3.23;;
15603;SDS011;7902;49.042;9.092;2023-09-30T04:40:41;25.43;;;3.80;;
15603;SDS011;7902;49.042;9.092;2023-09-30T04:43:10;21.13;;;3.70;;
15603;SDS011;7902;49.042;9.092;2023-09-30T04:45:36;24.77;;;3.43;;
15603;SDS011;7902;49.042;9.092;2023-09-30T04:48:02;21.00;;;3.20;;
15603;SDS011;7902;49.042;9.092;2023-09-30T04:50:28;25.57;;;3.23;;
15603;SDS011;7902;49.042;9.092;2023-09-30T04:52:56;21.23;;;3.17;;
15603;SDS011;7902;49.042;9.092;2023-09-30T04:55:23;20.10;;;3.60;;
15603;SDS011;7902;49.042;9.092;2023-09-30T04:57:49;20.37;;;3.00;;
15603;SDS011;7902;49.042;9.092;2023-09-30T05:00:16;24.70;;;3.07;;
15603;SDS011;7902;49.042;9.092;2023-09-30T05:02:44;21.83;;;3.50;;
15603;SDS011;7902;49.042;9.092;2023-09-30T05:05:11;23.03;;;3.80;;
15603;SDS011;7902;49.042;9.092;2023-09-30T05:07:37;20.90;;;4.10;;
15603;SDS011;7902;49.042;9.092;2023-09-30T05:10:03;21.73;;;4.00;;
15603;SDS011;7902;49.042;9.092;2023-09-30T05:12:33;17.77;;;3.20;;
15603;SDS011;7902;49.042;9.092;2023-09-30T05:14:59;22.83;;;4.20;;
15603;SDS011;7902;49.042;9.092;2023-09-30T05:17:25;19.83;;;3.47;;
15603;SDS011;7902;49.042;9.092;2023-09-30T05:19:51;20.60;;;4.00;;
15603;SDS011;7902;49.042;9.092;2023-09-30T05:22:17;24.27;;;4.27;;
15603;SDS011;7902;49.042;9.092;2023-09-30T05:24:47;25.40;;;4.07;;
15603;SDS011;7902;49.042;9.092;2023-09-30T05:27:13;26.00;;;4.13;;
15603;SDS011;7902;49.042;9.092;2023-09-30T05:29:39;21.50;;;3.80;;
15603;SDS011;7902;49.042;9.092;2023-09-30T05:32:05;26.50;;;2.80;;
15603;SDS011;7902;49.042;9.092;2023-09-30T05:34:32;18.37;;;4.17;;
15603;SDS011;7902;49.042;9.092;2023-09-30T05:36:58;19.13;;;3.90;;
15603;SDS011;7902;49.042;9.092;2023-09-30T05:39:24;21.80;;;3.80;;
15603;SDS011;7902;49.042;9.092;2023-09-30T05:41:51;26.97;;;4.17;;
15603;SDS011;7902;49.042;9.092;2023-09-30T05:44:16;23.37;;;4.63;;
15603;SDS011;7902;49.042;9.092;2023-09-30T05:46:42;20.50;;;3.90;;
15603;SDS011;7902;49.042;9.092;2023-09-30T05:49:09;21.47;;;4.37;;
15603;SDS011;7902;49.042;9.092;2023-09-30T05:51:39;18.53;;;3.63;;
15603;SDS011;7902;49.042;9.092;2023-09-30T05:54:06;19.17;;;3.60;;
15603;SDS011;7902;49.042;9.092;2023-09-30T05:56:38;27.63;;;3.77;;
15603;SDS011;7902;49.042;9.092;2023-09-30T05:59:08;23.27;;;4.10;;
15603;SDS011;7902;49.042;9.092;2023-09-30T06:01:34;21.23;;;4.60;;
15603;SDS011;7902;49.042;9.092;2023-09-30T06:04:01;24.23;;;4.67;;
15603;SDS011;7902;49.042;9.092;2023-09-30T06:06:28;29.37;;;4.30;;
15603;SDS011;7902;49.042;9.092;2023-09-30T06:08:57;20.23;;;4.43;;
15603;SDS011;7902;49.042;9.092;2023-09-30T06:11:24;34.93;;;5.07;;
15603;SDS011;7902;49.042;9.092;2023-09-30T06:13:59;26.40;;;4.53;;
15603;SDS011;7902;49.042;9.092;2023-09-30T06:16:26;23.30;;;5.23;;
15603;SDS011;7902;49.042;9.092;2023-09-30T06:18:53;31.10;;;5.00;;
15603;SDS011;7902;49.042;9.092;2023-09-30T06:21:20;21.63;;;4.90;;
15603;SDS011;7902;49.042;9.092;2023-09-30T06:23:49;35.67;;;5.23;;
15603;SDS011;7902;49.042;9.092;2023-09-30T06:26:18;20.33;;;4.80;;
15603;SDS011;7902;49.042;9.092;2023-09-30T06:28:44;21.47;;;5.30;;
15603;SDS011;7902;49.042;9.092;2023-09-30T06:31:10;21.07;;;4.20;;
15603;SDS011;7902;49.042;9.092;2023-09-30T06:33:37;23.10;;;4.70;;
15603;SDS011;7902;49.042;9.092;2023-09-30T06:38:37;23.07;;;3.70;;
15603;SDS011;7902;49.042;9.092;2023-09-30T06:41:07;18.03;;;3.90;;
15603;SDS011;7902;49.042;9.092;2023-09-30T06:43:34;26.90;;;4.90;;
15603;SDS011;7902;49.042;9.092;2023-09-30T06:46:06;25.50;;;4.23;;
15603;SDS011;7902;49.042;9.092;2023-09-30T06:48:36;31.57;;;5.90;;
15603;SDS011;7902;49.042;9.092;2023-09-30T06:51:03;26.63;;;4.60;;
15603;SDS011;7902;49.042;9.092;2023-09-30T06:53:28;33.10;;;5.50;;
15603;SDS011;7902;49.042;9.092;2023-09-30T06:55:55;29.33;;;4.93;;
15603;SDS011;7902;49.042;9.092;2023-09-30T06:58:20;22.33;;;5.17;;
15603;SDS011;7902;49.042;9.092;2023-09-30T07:00:50;23.17;;;4.73;;
15603;SDS011;7902;49.042;9.092;2023-09-30T07:03:17;24.17;;;5.37;;
15603;SDS011;7902;49.042;9.092;2023-09-30T07:05:45;26.13;;;5.63;;
15603;SDS011;7902;49.042;9.092;2023-09-30T07:08:11;21.90;;;4.50;;
15603;SDS011;7902;49.042;9.092;2023-09-30T07:10:37;25.80;;;4.73;;
15603;SDS011;7902;49.042;9.092;2023-09-30T07:13:03;30.83;;;4.90;;
15603;SDS011;7902;49.042;9.092;2023-09-30T07:15:30;29.67;;;5.23;;
15603;SDS011;7902;49.042;9.092;2023-09-30T07:17:56;21.70;;;5.33;;
15603;SDS011;7902;49.042;9.092;2023-09-30T07:20:21;20.57;;;4.90;;
15603;SDS011;7902;49.042;9.092;2023-09-30T07:22:48;24.50;;;5.30;;
15603;SDS011;7902;49.042;9.092;2023-09-30T07:25:14;22.80;;;5.40;;
15603;SDS011;7902;49.042;9.092;2023-09-30T07:27:44;27.90;;;4.80;;
15603;SDS011;7902;49.042;9.092;2023-09-30T07:30:11;19.40;;;4.63;;
15603;SDS011;7902;49.042;9.092;2023-09-30T07:32:43;25.43;;;5.03;;
15603;SDS011;7902;49.042;9.092;2023-09-30T07:35:10;27.00;;;5.17;;
15603;SDS011;7902;49.042;9.092;2023-09-30T07:37:36;28.10;;;4.80;;
15603;SDS011;7902;49.042;9.092;2023-09-30T07:40:02;25.63;;;4.93;;
15603;SDS011;7902;49.042;9.092;2023-09-30T07:42:28;23.03;;;5.17;;
15603;SDS011;7902;49.042;9.092;2023-09-30T07:44:55;22.03;;;4.70;;
15603;SDS011;7902;49.042;9.092;2023-09-30T07:47:21;23.13;;;4.10;;
15603;SDS011;7902;49.042;9.092;2023-09-30T07:49:47;24.47;;;4.67;;
15603;SDS011;7902;49.042;9.092;2023-09-30T07:52:13;26.07;;;6.00;;
15603;SDS011;7902;49.042;9.092;2023-09-30T07:54:39;24.03;;;4.80;;
15603;SDS011;7902;49.042;9.092;2023-09-30T07:57:04;29.47;;;5.50;;
15603;SDS011;7902;49.042;9.092;2023-09-30T07:59:30;20.00;;;4.80;;
15603;SDS011;7902;49.042;9.092;2023-09-30T08:01:58;24.67;;;5.37;;
15603;SDS011;7902;49.042;9.092;2023-09-30T08:04:24;21.63;;;5.13;;
15603;SDS011;7902;49.042;9.092;2023-09-30T08:06:50;29.20;;;5.57;;
15603;SDS011;7902;49.042;9.092;2023-09-30T08:09:16;24.60;;;5.07;;
15603;SDS011;7902;49.042;9.092;2023-09-30T08:11:44;28.27;;;5.50;;
15603;SDS011;7902;49.042;9.092;2023-09-30T08:14:10;34.57;;;5.67;;
15603;SDS011;7902;49.042;9.092;2023-09-30T08:16:36;25.63;;;5.30;;
15603;SDS011;7902;49.042;9.092;2023-09-30T08:19:03;26.97;;;5.87;;
15603;SDS011;7902;49.042;9.092;2023-09-30T08:21:29;25.43;;;5.10;;
15603;SDS011;7902;49.042;9.092;2023-09-30T08:23:56;22.00;;;4.60;;
15603;SDS011;7902;49.042;9.092;2023-09-30T08:26:22;26.67;;;5.43;;
15603;SDS011;7902;49.042;9.092;2023-09-30T08:28:48;23.30;;;5.00;;
15603;SDS011;7902;49.042;9.092;2023-09-30T08:31:14;25.80;;;4.70;;
15603;SDS011;7902;49.042;9.092;2023-09-30T08:33:40;29.83;;;4.77;;
15603;SDS011;7902;49.042;9.092;2023-09-30T08:36:09;26.77;;;4.70;;
15603;SDS011;7902;49.042;9.092;2023-09-30T08:38:36;25.70;;;4.60;;
15603;SDS011;7902;49.042;9.092;2023-09-30T08:41:03;24.00;;;4.33;;
15603;SDS011;7902;49.042;9.092;2023-09-30T08:43:29;21.90;;;4.37;;
15603;SDS011;7902;49.042;9.092;2023-09-30T08:45:58;23.00;;;4.30;;
15603;SDS011;7902;49.042;9.092;2023-09-30T08:48:27;21.00;;;3.90;;
15603;SDS011;7902;49.042;9.092;2023-09-30T08:50:54;20.47;;;3.83;;
15603;SDS011;7902;49.042;9.092;2023-09-30T08:53:21;32.77;;;4.30;;
15603;SDS011;7902;49.042;9.092;2023-09-30T08:55:48;19.23;;;3.00;;
15603;SDS011;7902;49.042;9.092;2023-09-30T08:58:26;21.80;;;3.73;;
15603;SDS011;7902;49.042;9.092;2023-09-30T09:00:53;22.77;;;3.40;;
15603;SDS011;7902;49.042;9.092;2023-09-30T09:03:19;24.60;;;3.00;;
15603;SDS011;7902;49.042;9.092;2023-09-30T09:05:55;21.63;;;3.60;;
15603;SDS011;7902;49.042;9.092;2023-09-30T09:08:22;23.30;;;3.80;;
15603;SDS011;7902;49.042;9.092;2023-09-30T09:10:57;26.70;;;3.67;;
15603;SDS011;7902;49.042;9.092;2023-09-30T09:13:27;24.53;;;3.67;;
15603;SDS011;7902;49.042;9.092;2023-09-30T09:16:06;19.00;;;3.03;;
15603;SDS011;7902;49.042;9.092;2023-09-30T09:18:33;24.63;;;3.50;;
15603;SDS011;7902;49.042;9.092;2023-09-30T09:21:07;21.70;;;3.30;;
15603;SDS011;7902;49.042;9.092;2023-09-30T09:23:40;20.63;;;3.30;;
15603;SDS011;7902;49.042;9.092;2023-09-30T09:26:32;22.80;;;3.73;;
15603;SDS011;7902;49.042;9.092;2023-09-30T09:29:01;21.40;;;3.60;;
15603;SDS011;7902;49.042;9.092;2023-09-30T09:31:32;27.63;;;3.80;;
15603;SDS011;7902;49.042;9.092;2023-09-30T09:34:03;21.27;;;3.33;;
15603;SDS011;7902;49.042;9.092;2023-09-30T09:36:38;23.93;;;4.27;;
15603;SDS011;7902;49.042;9.092;2023-09-30T09:39:06;26.90;;;4.27;;
15603;SDS011;7902;49.042;9.092;2023-09-30T09:41:32;26.20;;;3.70;;
15603;SDS011;7902;49.042;9.092;2023-09-30T09:43:58;37.00;;;4.40;;
15603;SDS011;7902;49.042;9.092;2023-09-30T09:46:25;27.20;;;4.00;;
15603;SDS011;7902;49.042;9.092;2023-09-30T09:48:52;21.47;;;3.40;;
15603;SDS011;7902;49.042;9.092;2023-09-30T09:51:20;26.23;;;3.50;;
15603;SDS011;7902;49.042;9.092;2023-09-30T09:53:46;28.10;;;3.90;;
15603;SDS011;7902;49.042;9.092;2023-09-30T09:56:14;19.67;;;3.10;;
15603;SDS011;7902;49.042;9.092;2023-09-30T09:58:42;23.27;;;3.47;;
15603;SDS011;7902;49.042;9.092;2023-09-30T10:01:09;27.03;;;3.73;;
15603;SDS011;7902;49.042;9.092;2023-09-30T10:03:37;26.97;;;4.13;;
15603;SDS011;7902;49.042;9.092;2023-09-30T10:06:04;23.83;;;3.53;;
15603;SDS011;7902;49.042;9.092;2023-09-30T10:08:35;25.00;;;4.27;;
15603;SDS011;7902;49.042;9.092;2023-09-30T10:11:04;23.10;;;3.50;;
15603;SDS011;7902;49.042;9.092;2023-09-30T10:19:06;22.10;;;4.23;;
15603;SDS011;7902;49.042;9.092;2023-09-30T10:21:36;34.23;;;3.77;;
15603;SDS011;7902;49.042;9.092;2023-09-30T10:26:47;27.23;;;3.53;;
15603;SDS011;7902;49.042;9.092;2023-09-30T10:29:48;21.17;;;3.30;;
15603;SDS011;7902;49.042;9.092;2023-09-30T10:32:18;20.63;;;3.20;;
15603;SDS011;7902;49.042;9.092;2023-09-30T10:34:48;23.90;;;4.10;;
15603;SDS011;7902;49.042;9.092;2023-09-30T10:37:21;24.53;;;3.40;;
15603;SDS011;7902;49.042;9.092;2023-09-30T10:39:55;24.00;;;3.77;;
15603;SDS011;7902;49.042;9.092;2023-09-30T10:50:54;24.90;;;4.10;;
15603;SDS011;7902;49.042;9.092;2023-09-30T10:53:22;19.83;;;3.37;;
15603;SDS011;7902;49.042;9.092;2023-09-30T10:55:57;23.30;;;3.80;;
15603;SDS011;7902;49.042;9.092;2023-09-30T11:01:05;26.90;;;4.13;;
15603;SDS011;7902;49.042;9.092;2023-09-30T11:03:31;25.60;;;4.03;;
15603;SDS011;7902;49.042;9.092;2023-09-30T11:05:57;24.27;;;4.47;;
15603;SDS011;7902;49.042;9.092;2023-09-30T11:08:23;24.37;;;3.93;;
15603;SDS011;7902;49.042;9.092;2023-09-30T11:10:52;22.37;;;3.90;;
15603;SDS011;7902;49.042;9.092;2023-09-30T11:13:19;23.67;;;3.70;;
15603;SDS011;7902;49.042;9.092;2023-09-30T11:15:45;27.53;;;4.57;;
15603;SDS011;7902;49.042;9.092;2023-09-30T11:18:14;28.13;;;4.30;;
15603;SDS011;7902;49.042;9.092;2023-09-30T11:20:42;21.73;;;4.10;;
15603;SDS011;7902;49.042;9.092;2023-09-30T11:23:08;25.07;;;4.10;;
15603;SDS011;7902;49.042;9.092;2023-09-30T11:25:35;25.20;;;4.23;;
15603;SDS011;7902;49.042;9.092;2023-09-30T11:28:16;28.70;;;4.47;;
15603;SDS011;7902;49.042;9.092;2023-09-30T11:30:58;22.93;;;4.03;;
15603;SDS011;7902;49.042;9.092;2023-09-30T11:33:27;28.85;;;4.82;;
15603;SDS011;7902;49.042;9.092;2023-09-30T11:36:13;23.85;;;4.72;;
15603;SDS011;7902;49.042;9.092;2023-09-30T11:38:43;25.52;;;4.25;;
15603;SDS011;7902;49.042;9.092;2023-09-30T11:41:11;26.38;;;4.40;;
15603;SDS011;7902;49.042;9.092;2023-09-30T11:43:37;37.80;;;4.63;;
15603;SDS011;7902;49.042;9.092;2023-09-30T11:46:11;25.08;;;4.60;;
15603;SDS011;7902;49.042;9.092;2023-09-30T11:51:25;27.52;;;4.40;;
15603;SDS011;7902;49.042;9.092;2023-09-30T11:53:52;26.23;;;4.50;;
15603;SDS011;7902;49.042;9.092;2023-09-30T11:56:20;28.08;;;4.60;;
15603;SDS011;7902;49.042;9.092;2023-09-30T11:58:53;25.38;;;4.30;;
15603;SDS011;7902;49.042;9.092;2023-09-30T12:01:19;24.88;;;4.75;;
15603;SDS011;7902;49.042;9.092;2023-09-30T12:03:47;27.60;;;4.38;;
15603;SDS011;7902;49.042;9.092;2023-09-30T12:06:14;24.35;;;3.65;;
15603;SDS011;7902;49.042;9.092;2023-09-30T12:08:42;22.83;;;4.10;;
15603;SDS011;7902;49.042;9.092;2023-09-30T12:11:08;22.83;;;4.53;;
15603;SDS011;7902;49.042;9.092;2023-09-30T12:13:34;26.10;;;4.32;;
15603;SDS011;7902;49.042;9.092;2023-09-30T12:16:00;31.33;;;5.45;;
15603;SDS011;7902;49.042;9.092;2023-09-30T12:18:26;29.63;;;4.43;;
15603;SDS011;7902;49.042;9.092;2023-09-30T12:20:52;24.03;;;4.47;;
15603;SDS011;7902;49.042;9.092;2023-09-30T12:23:21;34.70;;;4.43;;
15603;SDS011;7902;49.042;9.092;2023-09-30T12:25:47;32.03;;;5.10;;
15603;SDS011;7902;49.042;9.092;2023-09-30T12:28:13;30.20;;;5.67;;
15603;SDS011;7902;49.042;9.092;2023-09-30T12:30:40;24.83;;;4.83;;
15603;SDS011;7902;49.042;9.092;2023-09-30T12:33:07;26.55;;;4.88;;
15603;SDS011;7902;49.042;9.092;2023-09-30T12:35:33;23.15;;;4.25;;
15603;SDS011;7902;49.042;9.092;2023-09-30T12:37:59;26.27;;;5.07;;
15603;SDS011;7902;49.042;9.092;2023-09-30T12:40:25;24.30;;;4.30;;
15603;SDS011;7902;49.042;9.092;2023-09-30T12:42:51;25.57;;;5.00;;
15603;SDS011;7902;49.042;9.092;2023-09-30T12:45:17;25.83;;;4.20;;
15603;SDS011;7902;49.042;9.092;2023-09-30T12:47:44;26.63;;;5.28;;
15603;SDS011;7902;49.042;9.092;2023-09-30T12:50:10;33.15;;;5.68;;
15603;SDS011;7902;49.042;9.092;2023-09-30T12:52:36;24.45;;;4.35;;
15603;SDS011;7902;49.042;9.092;2023-09-30T12:55:04;24.85;;;5.60;;
15603;SDS011;7902;49.042;9.092;2023-09-30T12:57:31;29.13;;;5.10;;
15603;SDS011;7902;49.042;9.092;2023-09-30T12:59:57;29.55;;;4.95;;
15603;SDS011;7902;49.042;9.092;2023-09-30T13:02:23;25.10;;;4.63;;
15603;SDS011;7902;49.042;9.092;2023-09-30T13:04:49;28.83;;;5.70;;
15603;SDS011;7902;49.042;9.092;2023-09-30T13:07:15;24.30;;;4.82;;
15603;SDS011;7902;49.042;9.092;2023-09-30T13:09:41;27.60;;;4.57;;
15603;SDS011;7902;49.042;9.092;2023-09-30T13:12:08;27.85;;;5.38;;
15603;SDS011;7902;49.042;9.092;2023-09-30T13:14:34;26.08;;;5.05;;
15603;SDS011;7902;49.042;9.092;2023-09-30T13:17:00;24.75;;;5.25;;
15603;SDS011;7902;49.042;9.092;2023-09-30T13:19:29;28.30;;;5.45;;
15603;SDS011;7902;49.042;9.092;2023-09-30T13:21:56;23.95;;;4.30;;
15603;SDS011;7902;49.042;9.092;2023-09-30T13:24:22;26.08;;;5.47;;
15603;SDS011;7902;49.042;9.092;2023-09-30T13:26:48;33.50;;;8.35;;
15603;SDS011;7902;49.042;9.092;2023-09-30T13:29:15;32.72;;;6.50;;
15603;SDS011;7902;49.042;9.092;2023-09-30T13:31:42;28.88;;;5.75;;
15603;SDS011;7902;49.042;9.092;2023-09-30T13:34:09;23.55;;;4.65;;
15603;SDS011;7902;49.042;9.092;2023-09-30T13:36:35;28.55;;;5.40;;
15603;SDS011;7902;49.042;9.092;2023-09-30T13:39:01;26.02;;;5.57;;
15603;SDS011;7902;49.042;9.092;2023-09-30T13:41:33;24.48;;;4.78;;
15603;SDS011;7902;49.042;9.092;2023-09-30T13:44:00;27.48;;;5.47;;
15603;SDS011;7902;49.042;9.092;2023-09-30T13:46:26;24.90;;;5.55;;
15603;SDS011;7902;49.042;9.092;2023-09-30T13:48:53;27.30;;;5.18;;
15603;SDS011;7902;49.042;9.092;2023-09-30T13:51:19;29.45;;;5.63;;
15603;SDS011;7902;49.042;9.092;2023-09-30T13:53:45;28.92;;;5.65;;
15603;SDS011;7902;49.042;9.092;2023-09-30T13:56:11;24.50;;;4.47;;
15603;SDS011;7902;49.042;9.092;2023-09-30T13:58:37;27.23;;;5.13;;
15603;SDS011;7902;49.042;9.092;2023-09-30T14:01:03;27.98;;;5.80;;
15603;SDS011;7902;49.042;9.092;2023-09-30T14:03:29;26.48;;;5.45;;
15603;SDS011;7902;49.042;9.092;2023-09-30T14:05:55;30.88;;;5.22;;
15603;SDS011;7902;49.042;9.092;2023-09-30T14:08:24;30.95;;;5.47;;
15603;SDS011;7902;49.042;9.092;2023-09-30T14:10:50;28.33;;;5.93;;
15603;SDS011;7902;49.042;9.092;2023-09-30T14:13:19;26.13;;;5.70;;
15603;SDS011;7902;49.042;9.092;2023-09-30T14:15:45;26.63;;;5.45;;
15603;SDS011;7902;49.042;9.092;2023-09-30T14:18:12;25.70;;;4.78;;
15603;SDS011;7902;49.042;9.092;2023-09-30T14:20:38;35.17;;;5.20;;
15603;SDS011;7902;49.042;9.092;2023-09-30T14:23:04;26.02;;;5.22;;
15603;SDS011;7902;49.042;9.092;2023-09-30T14:25:30;27.08;;;5.35;;
15603;SDS011;7902;49.042;9.092;2023-09-30T14:27:56;30.35;;;6.13;;
15603;SDS011;7902;49.042;9.092;2023-09-30T14:30:25;26.20;;;5.20;;
15603;SDS011;7902;49.042;9.092;2023-09-30T14:32:51;26.20;;;5.68;;
15603;SDS011;7902;49.042;9.092;2023-09-30T14:35:19;33.10;;;5.32;;
15603;SDS011;7902;49.042;9.092;2023-09-30T14:37:45;33.03;;;6.72;;
15603;SDS011;7902;49.042;9.092;2023-09-30T14:40:11;28.23;;;5.55;;
15603;SDS011;7902;49.042;9.092;2023-09-30T14:42:38;28.20;;;5.20;;
15603;SDS011;7902;49.042;9.092;2023-09-30T14:45:05;33.03;;;5.57;;
15603;SDS011;7902;49.042;9.092;2023-09-30T14:47:31;30.73;;;6.15;;
15603;SDS011;7902;49.042;9.092;2023-09-30T14:49:57;30.88;;;6.45;;
15603;SDS011;7902;49.042;9.092;2023-09-30T14:52:25;27.80;;;6.03;;
15603;SDS011;7902;49.042;9.092;2023-09-30T14:54:51;38.42;;;6.20;;
15603;SDS011;7902;49.042;9.092;2023-09-30T14:57:17;39.13;;;6.00;;
15603;SDS011;7902;49.042;9.092;2023-09-30T14:59:45;24.23;;;5.35;;
15603;SDS011;7902;49.042;9.092;2023-09-30T15:02:11;26.08;;;5.13;;
15603;SDS011;7902;49.042;9.092;2023-09-30T15:04:37;30.73;;;5.00;;
15603;SDS011;7902;49.042;9.092;2023-09-30T15:07:03;26.83;;;5.72;;
15603;SDS011;7902;49.042;9.092;2023-09-30T15:09:29;28.48;;;6.90;;
15603;SDS011;7902;49.042;9.092;2023-09-30T15:11:55;33.80;;;5.82;;
15603;SDS011;7902;49.042;9.092;2023-09-30T15:14:21;30.92;;;5.82;;